ETSI METAR and TAF | Updated Today

ETSI METAR

Ingolstadt Manching Airport

Observation time: 43 min. ago

ETSI 062020Z AUTO 16002KT 0200 // ////// 10/09 Q1030 ///

Need help? Read our tutorial on how to read METARs or read the parsed version below.

Ingolstadt Manching Airport (ETSI) METAR

  • Weather conditions on Thu, 06 Oct 2022 20:20:00 +0000 (43 min. ago):
  • Present conditions: Dry
  • Clouds: Clear skies
  • Visibility: 200 meters
  • Wind: 160 degrees at 2 knots
  • Temperature: 10 celsius
  • Dew point: 9 celsius
  • Pressure: 1030 millibars
  • Remarks: None


Useful to know...

ETSI TAF

Ingolstadt Manching Airport

TAF ETSI 061311Z 0614/0623 33005KT 9999 NSW SCT025 BKN045
Observation time: 7:52 hr. ago
Need help? Read our tutorial on how to read TAFs or read the parsed version below.

Parsed version of TAF for Ingolstadt Manching Airport (ETSI)

  • From 06 October at 14:00 UTC, to day 06 of the month at 23:00 UTC
  • Clouds: No significant weather are observed; scattered at 762 meters; broken sky at 1372 meters
  • Visibility: Greater than 10 km
  • Wind: 330 degrees at 5